Time;durP1;ratioP1;P1;durP2;ratioP2;P2;SDS_P1;SDS_P2;PMS_P1;PMS_P2;Temp;Humidity;BMP_temperature;BMP_pressure;BME280_temperature;BME280_humidity;BME280_pressure;Samples;Min_cycle;Max_cycle;Signal;HPM_P1;HPM_P2
2022/11/19 00:00:44;;;;;;;;;4.75;4.75;;;;;19.44;42.88;100452.38;5059341;28;45405;-57
2022/11/19 00:03:10;;;;;;;;;6.00;4.00;;;;;19.40;43.13;100445.59;5058709;28;46354;-57
2022/11/19 00:05:40;;;;;;;;;3.00;3.00;;;;;19.41;43.01;100442.03;5056681;28;45265;-56
2022/11/19 00:08:05;;;;;;;;;4.00;3.00;;;;;19.43;42.58;100448.06;5064158;28;45300;-56
2022/11/19 00:10:33;;;;;;;;;5.00;5.00;;;;;19.39;42.96;100438.66;5072079;28;45375;-57
2022/11/19 00:12:59;;;;;;;;;4.00;4.00;;;;;19.40;42.78;100450.84;5066761;28;46462;-57
2022/11/19 00:15:24;;;;;;;;;4.00;4.00;;;;;19.40;42.67;100444.78;5059659;28;72172;-57
2022/11/19 00:17:49;;;;;;;;;4.75;3.75;;;;;19.39;42.89;100446.53;5063132;28;45286;-57
2022/11/19 00:20:18;;;;;;;;;5.00;3.75;;;;;19.36;43.02;100449.31;5060402;28;45331;-57
2022/11/19 00:22:44;;;;;;;;;5.00;3.50;;;;;19.38;42.96;100444.84;5060351;28;47191;-56
2022/11/19 00:25:10;;;;;;;;;6.00;4.50;;;;;19.37;42.66;100445.78;5070633;28;45386;-57
2022/11/19 00:27:35;;;;;;;;;4.00;4.00;;;;;19.37;42.71;100440.50;5068525;28;45332;-57
2022/11/19 00:30:01;;;;;;;;;4.25;3.25;;;;;19.35;42.42;100434.50;5061736;28;45743;-57
2022/11/19 00:32:27;;;;;;;;;3.00;3.00;;;;;19.36;43.10;100438.81;5059723;28;45429;-57
2022/11/19 00:34:52;;;;;;;;;3.00;3.00;;;;;19.36;42.86;100437.97;5058989;28;45341;-56
2022/11/19 00:37:18;;;;;;;;;5.00;5.00;;;;;19.35;43.02;100439.75;5058755;28;45466;-57
2022/11/19 00:39:43;;;;;;;;;5.00;3.75;;;;;19.34;42.51;100440.72;5059085;28;45336;-56
2022/11/19 00:42:08;;;;;;;;;5.50;4.00;;;;;19.33;42.82;100449.53;5058709;28;46844;-56
2022/11/19 00:44:34;;;;;;;;;3.25;3.25;;;;;19.33;42.51;100452.16;5058673;28;45403;-57
2022/11/19 00:46:59;;;;;;;;;3.00;3.00;;;;;19.33;42.64;100446.91;5057538;28;45286;-58
2022/11/19 00:49:24;;;;;;;;;7.00;4.00;;;;;19.31;42.84;100441.72;5058907;28;45200;-57
2022/11/19 00:51:49;;;;;;;;;3.00;3.00;;;;;19.33;42.56;100448.66;5058272;28;53025;-59
2022/11/19 00:54:15;;;;;;;;;4.00;4.00;;;;;19.32;42.57;100455.72;5059079;28;45412;-57
2022/11/19 00:56:40;;;;;;;;;3.00;3.00;;;;;19.31;42.29;100446.13;5059164;28;45308;-57
2022/11/19 00:59:06;;;;;;;;;5.75;3.00;;;;;19.30;42.89;100447.88;5058607;28;50576;-57
2022/11/19 01:01:31;;;;;;;;;2.25;2.25;;;;;19.30;42.80;100436.56;5068776;28;46317;-57
2022/11/19 01:03:57;;;;;;;;;2.75;2.50;;;;;19.29;42.38;100448.81;5073361;28;45249;-56
2022/11/19 01:06:24;;;;;;;;;4.75;4.00;;;;;19.28;42.67;100449.78;5072448;28;49586;-54
2022/11/19 01:08:51;;;;;;;;;3.50;2.25;;;;;19.28;42.33;100448.91;5065096;28;45389;-57
2022/11/19 01:11:26;;;;;;;;;3.00;3.00;;;;;19.28;42.60;100454.19;5070139;28;46548;-56
2022/11/19 01:13:52;;;;;;;;;5.00;5.00;;;;;19.26;42.44;100459.53;5061609;28;45362;-55
2022/11/19 01:16:26;;;;;;;;;3.00;3.00;;;;;19.26;42.21;100458.66;5068160;28;45353;-57
2022/11/19 01:18:52;;;;;;;;;3.00;3.00;;;;;19.26;42.68;100463.91;5060081;28;45272;-57
2022/11/19 01:21:19;;;;;;;;;4.75;4.75;;;;;19.26;42.76;100467.41;5059066;28;46952;-57
2022/11/19 01:23:45;;;;;;;;;3.50;3.00;;;;;19.25;42.33;100467.47;5058880;28;45800;-57
2022/11/19 01:26:12;;;;;;;;;4.00;4.00;;;;;19.25;42.72;100467.47;5059416;28;45264;-57
2022/11/19 01:28:37;;;;;;;;;3.50;3.50;;;;;19.25;42.48;100467.47;5060448;28;45636;-57
2022/11/19 01:31:07;;;;;;;;;4.00;2.75;;;;;19.21;42.16;100458.09;5061375;28;45350;-56
2022/11/19 01:33:34;;;;;;;;;3.00;3.00;;;;;19.23;42.56;100466.75;5068834;28;45376;-56
2022/11/19 01:36:02;;;;;;;;;3.25;3.00;;;;;19.20;42.20;100465.09;5063214;28;45340;-58
2022/11/19 01:38:28;;;;;;;;;4.00;3.00;;;;;19.20;42.57;100473.00;5059446;28;45506;-57
2022/11/19 01:40:54;;;;;;;;;3.00;3.00;;;;;19.20;42.68;100477.41;5058534;28;46037;-58
2022/11/19 01:43:42;;;;;;;;;4.00;4.00;;;;;19.21;42.51;100477.31;5058640;28;45430;-57
2022/11/19 01:46:09;;;;;;;;;3.25;3.25;;;;;19.21;42.78;100492.25;5059285;28;45297;-57
2022/11/19 01:48:39;;;;;;;;;2.00;2.00;;;;;19.21;42.58;100489.63;5059130;28;45612;-57
2022/11/19 01:51:13;;;;;;;;;3.25;3.25;;;;;19.20;42.55;100485.28;5058676;28;47264;-57
2022/11/19 01:53:39;;;;;;;;;3.75;3.75;;;;;19.20;42.13;100485.28;5059219;28;45780;-57
2022/11/19 01:56:06;;;;;;;;;2.75;2.75;;;;;19.20;42.30;100487.91;5059560;28;45429;-56
2022/11/19 01:58:42;;;;;;;;;2.75;2.75;;;;;19.19;42.10;100480.97;5059846;28;45367;-57
2022/11/19 02:01:09;;;;;;;;;3.00;3.00;;;;;19.20;42.07;100490.53;5072519;28;46289;-58
2022/11/19 02:03:36;;;;;;;;;4.00;4.00;;;;;19.15;42.57;100486.38;5070241;28;45215;-57
2022/11/19 02:06:02;;;;;;;;;4.50;3.50;;;;;19.18;42.30;100481.91;5059753;28;45328;-57
2022/11/19 02:08:42;;;;;;;;;4.75;3.00;;;;;19.16;42.26;100489.88;5062032;28;45165;-58
2022/11/19 02:11:26;;;;;;;;;3.25;3.00;;;;;19.18;42.50;100481.91;5067019;28;46210;-57
2022/11/19 02:14:22;;;;;;;;;4.50;4.50;;;;;19.13;42.56;100479.53;5075007;28;45320;-57
2022/11/19 02:16:56;;;;;;;;;3.25;3.00;;;;;19.15;42.40;100489.00;5064544;28;45359;-55
2022/11/19 02:19:46;;;;;;;;;3.00;3.00;;;;;19.15;42.31;100481.13;5062360;28;45307;-57
2022/11/19 02:22:54;;;;;;;;;4.00;4.00;;;;;19.14;42.71;100482.06;5058770;28;46057;-56
2022/11/19 02:25:46;;;;;;;;;4.00;3.75;;;;;19.11;42.29;100486.63;5059086;28;45496;-61
2022/11/19 02:28:36;;;;;;;;;6.00;5.00;;;;;19.13;42.20;100479.53;5062678;28;45249;-57
2022/11/19 02:31:34;;;;;;;;;4.00;3.75;;;;;19.11;42.33;100482.25;5061183;28;45651;-56
2022/11/19 02:34:14;;;;;;;;;4.50;4.00;;;;;19.11;42.14;100484.00;5061904;28;46506;-57
2022/11/19 02:36:42;;;;;;;;;4.25;4.25;;;;;19.07;42.28;100485.97;5059867;28;45290;-56
2022/11/19 02:39:16;;;;;;;;;2.75;2.75;;;;;19.10;42.10;100488.44;5057886;28;45407;-56
2022/11/19 02:41:54;;;;;;;;;8.25;5.50;;;;;19.09;42.37;100489.34;5062278;28;45425;-55
2022/11/19 02:47:25;;;;;;;;;4.75;4.75;;;;;19.07;42.13;100475.47;5075983;28;45402;-55
2022/11/19 02:49:56;;;;;;;;;6.50;4.25;;;;;19.06;42.18;100476.38;5059379;28;45403;-57
2022/11/19 02:52:22;;;;;;;;;5.00;5.00;;;;;19.08;42.68;100481.53;5058253;28;45301;-57
2022/11/19 02:54:47;;;;;;;;;4.00;4.00;;;;;19.07;42.45;100480.72;5056815;28;47299;-56
2022/11/19 02:57:13;;;;;;;;;6.00;4.00;;;;;19.07;42.13;100482.50;5056614;28;62371;-56
2022/11/19 03:05:32;;;;;;;;;8.75;5.75;;;;;19.03;42.34;100476.53;5059335;28;45811;-56
2022/11/19 03:07:58;;;;;;;;;5.00;5.00;;;;;19.06;42.35;100480.81;5063878;28;45436;-56
2022/11/19 03:10:38;;;;;;;;;4.00;4.00;;;;;19.05;42.53;100479.94;5064811;28;45167;-56
2022/11/19 03:19:01;;;;;;;;;5.00;5.00;;;;;19.02;42.44;100482.72;5056892;28;45364;-56
2022/11/19 03:21:35;;;;;;;;;5.25;5.25;;;;;19.04;41.98;100491.38;5079067;28;44704;-56
2022/11/19 03:24:07;;;;;;;;;6.00;4.75;;;;;19.01;42.41;100486.31;5064544;28;45238;-56
2022/11/19 03:26:46;;;;;;;;;4.50;4.00;;;;;19.03;42.33;100494.94;5056235;28;46487;-56
2022/11/19 03:29:13;;;;;;;;;5.25;4.50;;;;;19.03;41.92;100494.09;5056478;28;46057;-57
2022/11/19 03:31:42;;;;;;;;;5.75;5.75;;;;;19.02;41.95;100495.84;5056270;28;45417;-57
2022/11/19 03:34:13;;;;;;;;;5.00;3.75;;;;;19.02;42.12;100497.66;5056596;28;45558;-57
2022/11/19 03:36:42;;;;;;;;;6.00;4.00;;;;;19.01;42.32;100496.81;5056102;28;45349;-56
2022/11/19 03:39:12;;;;;;;;;9.25;4.25;;;;;19.02;42.04;100501.09;5056091;28;45776;-57
2022/11/19 03:41:39;;;;;;;;;4.50;4.50;;;;;19.02;41.90;100498.47;5056694;28;45338;-56
2022/11/19 03:44:11;;;;;;;;;6.00;4.00;;;;;19.00;42.45;100503.81;5059912;28;45231;-56
2022/11/19 03:46:39;;;;;;;;;3.00;3.00;;;;;19.00;42.11;100497.75;5062756;28;45449;-57
2022/11/19 03:49:08;;;;;;;;;4.00;4.00;;;;;19.00;42.20;100500.38;5060814;28;45793;-57
2022/11/19 03:51:42;;;;;;;;;2.50;2.50;;;;;19.01;42.25;100502.06;5082973;28;44673;-56
2022/11/19 03:54:09;;;;;;;;;3.00;1.25;;;;;18.98;42.19;100502.22;5071993;28;45195;-57
2022/11/19 03:56:38;;;;;;;;;4.75;3.00;;;;;19.00;42.31;100510.88;5059613;28;45664;-56
2022/11/19 03:59:04;;;;;;;;;5.25;4.00;;;;;18.96;42.53;100507.53;5059684;28;45417;-56
2022/11/19 04:01:32;;;;;;;;;5.50;4.75;;;;;18.98;42.29;100518.81;5059787;28;45158;-56
2022/11/19 04:06:41;;;;;;;;;4.75;3.00;;;;;18.96;42.20;100511.97;5059455;28;46156;-56
2022/11/19 04:09:07;;;;;;;;;3.25;3.00;;;;;18.98;42.19;100515.34;5059171;28;51654;-56
2022/11/19 04:11:32;;;;;;;;;3.00;3.00;;;;;18.98;42.06;100513.56;5059549;28;45387;-56
2022/11/19 04:13:57;;;;;;;;;3.75;3.75;;;;;18.98;42.58;100512.72;5059784;28;45592;-56
2022/11/19 04:16:22;;;;;;;;;3.00;3.00;;;;;19.02;42.21;100514.25;5068844;28;68041;-56
2022/11/19 04:18:48;;;;;;;;;4.50;3.75;;;;;19.04;42.66;100516.81;5075701;28;45482;-56
2022/11/19 04:21:13;;;;;;;;;4.00;4.00;;;;;19.08;42.57;100513.94;5060973;28;62219;-57
2022/11/19 04:23:38;;;;;;;;;4.33;3.33;;;;;19.11;42.55;100513.78;5059079;28;52283;-57
2022/11/19 04:26:04;;;;;;;;;4.75;3.00;;;;;19.14;42.09;100521.47;5059461;28;45254;-56
2022/11/19 04:28:29;;;;;;;;;5.50;2.75;;;;;19.18;42.15;100530.06;5059074;28;45227;-57
2022/11/19 04:30:54;;;;;;;;;4.00;4.00;;;;;19.22;42.35;100526.31;5058644;28;45534;-56
2022/11/19 04:33:20;;;;;;;;;5.25;3.75;;;;;19.26;42.48;100524.34;5059306;28;45416;-57
2022/11/19 04:35:45;;;;;;;;;2.75;2.75;;;;;19.28;42.24;100519.88;5057858;28;45417;-55
2022/11/19 04:38:10;;;;;;;;;3.50;3.00;;;;;19.31;42.09;100530.22;5058756;28;45353;-57
2022/11/19 04:40:36;;;;;;;;;3.25;3.00;;;;;19.36;42.15;100533.41;5059698;28;45414;-56
2022/11/19 04:43:01;;;;;;;;;4.25;2.50;;;;;19.39;42.53;100533.25;5071919;28;45526;-57
2022/11/19 04:45:26;;;;;;;;;3.00;3.00;;;;;19.42;41.96;100538.34;5080923;28;45469;-57
2022/11/19 04:47:52;;;;;;;;;4.50;3.00;;;;;19.43;42.14;100537.44;5063654;28;45390;-57
2022/11/19 04:50:17;;;;;;;;;3.00;3.00;;;;;19.48;42.41;100542.41;5060216;28;45336;-55
2022/11/19 04:52:42;;;;;;;;;4.50;3.25;;;;;19.51;41.75;100551.91;5059369;28;45508;-57
2022/11/19 04:55:09;;;;;;;;;2.00;2.00;;;;;19.54;42.18;100541.22;5058348;28;57777;-57
2022/11/19 04:57:35;;;;;;;;;3.00;3.00;;;;;19.55;42.29;100546.41;5058048;28;45755;-58
2022/11/19 05:00:00;;;;;;;;;2.25;2.25;;;;;19.58;42.26;100545.38;5059185;28;45231;-57
2022/11/19 05:02:25;;;;;;;;;2.25;2.25;;;;;19.60;42.30;100546.13;5061798;28;45204;-60
2022/11/19 05:04:51;;;;;;;;;3.67;3.00;;;;;19.62;42.36;100544.28;5062037;28;58238;-56
2022/11/19 05:07:16;;;;;;;;;2.75;2.75;;;;;19.61;41.73;100555.72;5067188;28;49981;-57
2022/11/19 05:09:41;;;;;;;;;5.00;3.00;;;;;19.64;41.83;100552.94;5071428;28;45229;-56
2022/11/19 05:12:06;;;;;;;;;1.00;1.00;;;;;19.66;41.79;100550.19;5079845;28;44836;-57
2022/11/19 05:14:32;;;;;;;;;2.67;2.00;;;;;19.65;42.13;100552.00;5059985;28;57547;-57
2022/11/19 05:16:57;;;;;;;;;0.00;0.00;;;;;19.67;41.69;100557.16;5062212;28;53031;-56
2022/11/19 05:19:22;;;;;;;;;2.00;2.00;;;;;19.67;41.81;100562.41;5064703;28;45206;-55
2022/11/19 05:21:48;;;;;;;;;4.00;3.00;;;;;19.67;41.49;100567.69;5066981;28;45197;-56
2022/11/19 05:24:13;;;;;;;;;5.50;2.75;;;;;19.65;42.16;100554.63;5063595;28;45219;-55
2022/11/19 05:26:38;;;;;;;;;2.00;2.00;;;;;19.67;41.94;100555.41;5062386;28;62108;-56
2022/11/19 05:29:04;;;;;;;;;2.50;2.50;;;;;19.67;41.72;100555.41;5061288;28;45158;-56
2022/11/19 05:31:29;;;;;;;;;3.50;2.00;;;;;19.66;41.69;100561.59;5061886;28;45378;-56
2022/11/19 05:33:54;;;;;;;;;3.00;3.00;;;;;19.67;42.06;100562.41;5059418;28;48786;-56
2022/11/19 05:36:20;;;;;;;;;3.00;2.00;;;;;19.67;41.50;100560.66;5058808;28;45341;-57
2022/11/19 05:38:45;;;;;;;;;3.00;3.00;;;;;19.67;42.05;100563.28;5058754;28;45365;-56
2022/11/19 05:41:10;;;;;;;;;3.00;3.00;;;;;19.67;41.96;100565.91;5068984;28;45291;-57
2022/11/19 05:43:35;;;;;;;;;2.00;2.00;;;;;19.63;41.85;100557.31;5076023;28;66295;-57
2022/11/19 05:46:01;;;;;;;;;2.00;2.00;;;;;19.66;41.81;100553.69;5070884;28;45306;-56
2022/11/19 05:48:27;;;;;;;;;3.00;3.00;;;;;19.66;42.18;100556.31;5066204;28;45295;-57
2022/11/19 05:50:53;;;;;;;;;2.50;2.00;;;;;19.66;41.95;100558.97;5066998;28;45506;-57
2022/11/19 05:53:18;;;;;;;;;4.75;2.75;;;;;19.66;41.79;100558.09;5059817;28;46552;-57
2022/11/19 05:55:43;;;;;;;;;3.00;2.00;;;;;19.67;41.98;100557.16;5059770;28;45295;-57
2022/11/19 05:58:09;;;;;;;;;2.50;2.50;;;;;19.63;41.67;100552.06;5063270;28;45511;-56
2022/11/19 06:00:34;;;;;;;;;4.00;2.50;;;;;19.65;42.04;100552.00;5068884;28;45592;-57
2022/11/19 06:02:59;;;;;;;;;3.00;3.00;;;;;19.64;41.73;100555.56;5065708;28;45252;-56
2022/11/19 06:05:25;;;;;;;;;1.25;1.25;;;;;19.65;41.78;100554.63;5058450;28;45405;-57
2022/11/19 06:07:50;;;;;;;;;4.00;2.75;;;;;19.65;41.42;100554.63;5057531;28;45399;-57
2022/11/19 06:10:15;;;;;;;;;3.50;3.00;;;;;19.64;41.75;100558.19;5056166;28;54260;-57
2022/11/19 06:12:43;;;;;;;;;2.00;2.00;;;;;19.64;41.82;100558.19;5057064;28;47092;-57
2022/11/19 06:15:09;;;;;;;;;2.00;2.00;;;;;19.63;41.70;100561.75;5057441;28;45296;-57
2022/11/19 06:17:34;;;;;;;;;2.00;2.00;;;;;19.61;41.98;100556.59;5058193;28;45202;-57
2022/11/19 06:19:59;;;;;;;;;4.50;2.00;;;;;19.61;41.40;100560.97;5059214;28;45416;-57
2022/11/19 06:22:25;;;;;;;;;2.00;2.00;;;;;19.61;41.99;100569.72;5069210;28;64546;-56
2022/11/19 06:24:50;;;;;;;;;2.00;2.00;;;;;19.58;41.45;100559.38;5075633;28;45370;-57
2022/11/19 06:27:15;;;;;;;;;0.75;0.75;;;;;19.57;41.62;100554.19;5072852;28;45357;-57
2022/11/19 06:29:41;;;;;;;;;3.25;3.25;;;;;19.60;41.50;100561.91;5063015;28;45223;-60
2022/11/19 06:32:06;;;;;;;;;2.50;2.50;;;;;19.58;41.63;100563.78;5068478;28;46342;-59
2022/11/19 06:34:31;;;;;;;;;2.00;2.00;;;;;19.59;41.88;100574.22;5061686;28;52940;-56
2022/11/19 06:36:57;;;;;;;;;2.25;2.00;;;;;19.59;41.87;100581.25;5059896;28;45366;-56
2022/11/19 06:39:23;;;;;;;;;3.00;3.00;;;;;19.57;41.89;100577.84;5059976;28;45545;-56
2022/11/19 06:41:48;;;;;;;;;3.00;2.00;;;;;19.58;41.71;100580.41;5059485;28;46256;-56
2022/11/19 06:44:13;;;;;;;;;2.00;2.00;;;;;19.56;41.64;100586.69;5076694;28;44721;-56
2022/11/19 06:46:39;;;;;;;;;3.50;2.25;;;;;19.56;41.54;100594.56;5072019;28;45284;-56
2022/11/19 06:49:04;;;;;;;;;2.50;2.50;;;;;19.55;41.43;100590.25;5074658;28;45216;-55
2022/11/19 06:51:30;;;;;;;;;5.75;2.25;;;;;19.52;41.31;100596.50;5073164;28;46357;-55
2022/11/19 06:53:55;;;;;;;;;4.75;2.00;;;;;19.53;41.85;100605.25;5073237;28;45216;-56
2022/11/19 06:56:21;;;;;;;;;2.00;2.00;;;;;19.54;41.72;100606.94;5057994;28;47456;-55
2022/11/19 06:58:46;;;;;;;;;3.00;3.00;;;;;19.53;41.71;100613.13;5058768;28;51393;-56
2022/11/19 07:01:13;;;;;;;;;4.00;2.50;;;;;19.52;41.28;100611.44;5071522;28;50745;-57
2022/11/19 07:03:39;;;;;;;;;3.50;2.00;;;;;19.49;41.26;100601.94;5059792;28;45297;-57
2022/11/19 07:06:05;;;;;;;;;3.50;1.75;;;;;19.51;41.80;100612.38;5057662;28;45166;-56
2022/11/19 07:08:35;;;;;;;;;3.75;2.00;;;;;19.51;41.46;100609.75;5056930;28;45620;-56
2022/11/19 07:11:24;;;;;;;;;2.00;2.00;;;;;19.47;41.43;100615.16;5056941;28;46940;-56
2022/11/19 07:13:58;;;;;;;;;2.00;2.00;;;;;19.49;41.25;100627.38;5070180;28;45693;-56
2022/11/19 07:16:31;;;;;;;;;1.00;1.00;;;;;19.48;41.54;100629.16;5079198;28;45284;-55
2022/11/19 07:19:02;;;;;;;;;1.75;1.75;;;;;19.45;41.99;100630.19;5063464;28;45350;-55
2022/11/19 07:21:29;;;;;;;;;1.00;0.50;;;;;19.49;41.61;100637.88;5076552;28;46331;-57
2022/11/19 07:23:56;;;;;;;;;3.00;2.50;;;;;19.47;41.80;100641.44;5060619;28;45287;-56
2022/11/19 07:26:21;;;;;;;;;2.50;2.50;;;;;19.46;41.35;100639.75;5057144;28;45339;-56
2022/11/19 07:28:47;;;;;;;;;4.00;3.00;;;;;19.46;41.52;100639.75;5056951;28;45311;-56
2022/11/19 07:31:12;;;;;;;;;2.00;2.00;;;;;19.44;41.84;100641.63;5061347;28;45215;-56
2022/11/19 07:33:38;;;;;;;;;3.75;2.25;;;;;19.44;41.80;100641.63;5069356;28;45267;-56
2022/11/19 07:36:08;;;;;;;;;3.00;1.75;;;;;19.44;41.48;100646.88;5080988;28;44730;-56
2022/11/19 07:38:34;;;;;;;;;2.00;2.00;;;;;19.43;41.43;100653.06;5058287;28;45437;-54
2022/11/19 07:41:00;;;;;;;;;3.25;2.50;;;;;19.43;41.46;100655.69;5056660;28;46153;-55
2022/11/19 07:43:25;;;;;;;;;1.75;1.75;;;;;19.42;41.97;100663.66;5056297;28;45164;-56
2022/11/19 07:45:50;;;;;;;;;2.00;2.00;;;;;19.41;41.82;100660.19;5056088;28;45335;-55
2022/11/19 07:48:15;;;;;;;;;4.33;3.00;;;;;19.42;41.77;100664.50;5055600;28;52528;-56
2022/11/19 07:50:41;;;;;;;;;2.00;1.00;;;;;19.41;41.86;100661.94;5055716;28;46299;-57
2022/11/19 07:53:08;;;;;;;;;3.00;3.00;;;;;19.42;41.22;100661.88;5055841;28;45302;-56
2022/11/19 07:55:33;;;;;;;;;4.00;2.00;;;;;19.39;41.96;100653.31;5056553;28;45369;-56
2022/11/19 07:57:59;;;;;;;;;2.25;2.00;;;;;19.38;41.31;100662.97;5062703;28;45613;-56
2022/11/19 08:00:24;;;;;;;;;4.00;2.25;;;;;19.39;41.44;100669.91;5064526;28;46284;-56
2022/11/19 08:02:50;;;;;;;;;2.75;2.50;;;;;19.36;41.74;100672.69;5058226;28;45363;-56
2022/11/19 08:05:16;;;;;;;;;3.00;3.00;;;;;19.39;41.76;100675.19;5056825;28;45674;-56
2022/11/19 08:07:42;;;;;;;;;2.00;2.00;;;;;19.38;41.40;100684.00;5055837;28;45349;-56
2022/11/19 08:10:09;;;;;;;;;2.00;2.00;;;;;19.39;41.80;100690.94;5055494;28;45867;-56
2022/11/19 08:12:35;;;;;;;;;2.00;2.00;;;;;19.39;41.51;100690.13;5055524;28;45947;-55
2022/11/19 08:15:00;;;;;;;;;2.25;2.25;;;;;19.38;41.57;100693.66;5056064;28;45394;-56
2022/11/19 08:20:10;;;;;;;;;2.50;1.75;;;;;19.35;41.67;100694.66;5055845;28;45806;-56
2022/11/19 08:22:39;;;;;;;;;2.25;2.25;;;;;19.36;41.38;100706.03;5056289;28;45377;-55
2022/11/19 08:25:05;;;;;;;;;2.00;2.00;;;;;19.34;41.35;100706.13;5057447;28;45537;-59
2022/11/19 08:27:31;;;;;;;;;2.00;2.00;;;;;19.36;41.38;100714.75;5057464;28;45493;-56
2022/11/19 08:29:56;;;;;;;;;2.00;2.00;;;;;19.36;41.30;100722.63;5056786;28;45903;-56
2022/11/19 08:32:22;;;;;;;;;2.25;2.25;;;;;19.36;41.79;100719.19;5056762;28;45526;-56
